sensor_id;sensor_type;location;lat;lon;timestamp;pressure;altitude;pressure_sealevel;temperature;humidity
45621;BME280;31345;51.522;10.702;2023-01-30T00:01:54;99119.72;;;-0.38;100.00
45621;BME280;31345;51.522;10.702;2023-01-30T00:04:27;99104.28;;;-0.37;100.00
45621;BME280;31345;51.522;10.702;2023-01-30T00:06:59;99106.00;;;-0.36;100.00
45621;BME280;31345;51.522;10.702;2023-01-30T00:09:32;99093.31;;;-0.43;100.00
45621;BME280;31345;51.522;10.702;2023-01-30T00:11:59;99089.03;;;-0.43;100.00
45621;BME280;31345;51.522;10.702;2023-01-30T00:14:27;99082.78;;;-0.33;100.00
45621;BME280;31345;51.522;10.702;2023-01-30T00:17:01;99078.44;;;-0.29;100.00
45621;BME280;31345;51.522;10.702;2023-01-30T00:19:34;99063.28;;;-0.40;100.00
45621;BME280;31345;51.522;10.702;2023-01-30T00:22:07;99051.28;;;-0.41;100.00
45621;BME280;31345;51.522;10.702;2023-01-30T00:24:39;99036.63;;;-0.34;100.00
45621;BME280;31345;51.522;10.702;2023-01-30T00:27:12;99021.31;;;-0.40;100.00
45621;BME280;31345;51.522;10.702;2023-01-30T00:29:40;99032.25;;;-0.30;100.00
45621;BME280;31345;51.522;10.702;2023-01-30T00:32:14;99026.72;;;-0.13;100.00
45621;BME280;31345;51.522;10.702;2023-01-30T00:34:46;99023.47;;;-0.22;100.00
45621;BME280;31345;51.522;10.702;2023-01-30T00:37:19;99016.31;;;-0.09;100.00
45621;BME280;31345;51.522;10.702;2023-01-30T00:39:51;99008.44;;;-0.01;100.00
45621;BME280;31345;51.522;10.702;2023-01-30T00:42:19;98998.19;;;-0.02;100.00
45621;BME280;31345;51.522;10.702;2023-01-30T00:45:10;99024.53;;;0.07;100.00
45621;BME280;31345;51.522;10.702;2023-01-30T00:48:02;99036.66;;;0.02;100.00
45621;BME280;31345;51.522;10.702;2023-01-30T00:50:29;99016.19;;;-0.02;100.00
45621;BME280;31345;51.522;10.702;2023-01-30T00:53:13;99017.88;;;-0.01;100.00
45621;BME280;31345;51.522;10.702;2023-01-30T00:55:41;98993.97;;;-0.05;100.00
45621;BME280;31345;51.522;10.702;2023-01-30T00:58:10;98981.13;;;-0.05;100.00
45621;BME280;31345;51.522;10.702;2023-01-30T01:00:46;98971.72;;;-0.06;100.00
45621;BME280;31345;51.522;10.702;2023-01-30T01:03:20;98949.31;;;-0.01;100.00
45621;BME280;31345;51.522;10.702;2023-01-30T01:05:55;98958.75;;;-0.01;100.00
45621;BME280;31345;51.522;10.702;2023-01-30T01:08:28;98950.16;;;-0.00;100.00
45621;BME280;31345;51.522;10.702;2023-01-30T01:11:00;98937.13;;;0.07;100.00
45621;BME280;31345;51.522;10.702;2023-01-30T01:13:28;98931.00;;;0.12;100.00
45621;BME280;31345;51.522;10.702;2023-01-30T01:16:00;98941.44;;;0.05;100.00
45621;BME280;31345;51.522;10.702;2023-01-30T01:18:34;98961.66;;;0.19;100.00
45621;BME280;31345;51.522;10.702;2023-01-30T01:21:07;98962.75;;;0.44;100.00
45621;BME280;31345;51.522;10.702;2023-01-30T01:23:34;98963.16;;;0.28;100.00
45621;BME280;31345;51.522;10.702;2023-01-30T01:26:02;98971.66;;;0.32;100.00
45621;BME280;31345;51.522;10.702;2023-01-30T01:28:29;98969.66;;;0.42;100.00
45621;BME280;31345;51.522;10.702;2023-01-30T01:30:57;98962.66;;;0.49;100.00
45621;BME280;31345;51.522;10.702;2023-01-30T01:33:27;98946.44;;;0.45;100.00
45621;BME280;31345;51.522;10.702;2023-01-30T01:35:57;98944.34;;;0.59;100.00
45621;BME280;31345;51.522;10.702;2023-01-30T01:38:30;98943.09;;;0.73;100.00
45621;BME280;31345;51.522;10.702;2023-01-30T01:40:58;98937.09;;;0.74;100.00
45621;BME280;31345;51.522;10.702;2023-01-30T01:43:55;98930.97;;;0.78;100.00
45621;BME280;31345;51.522;10.702;2023-01-30T01:46:26;98933.66;;;0.74;100.00
45621;BME280;31345;51.522;10.702;2023-01-30T01:49:02;98926.84;;;0.73;100.00
45621;BME280;31345;51.522;10.702;2023-01-30T01:51:41;98924.38;;;0.68;100.00
45621;BME280;31345;51.522;10.702;2023-01-30T01:54:14;98903.00;;;0.66;100.00
45621;BME280;31345;51.522;10.702;2023-01-30T01:56:50;98888.91;;;0.79;100.00
45621;BME280;31345;51.522;10.702;2023-01-30T01:59:22;98873.88;;;0.65;100.00
45621;BME280;31345;51.522;10.702;2023-01-30T02:01:55;98880.81;;;0.62;100.00
45621;BME280;31345;51.522;10.702;2023-01-30T02:04:26;98878.97;;;0.67;100.00
45621;BME280;31345;51.522;10.702;2023-01-30T02:07:16;98873.06;;;0.63;100.00
45621;BME280;31345;51.522;10.702;2023-01-30T02:09:45;98876.41;;;0.67;100.00
45621;BME280;31345;51.522;10.702;2023-01-30T02:12:13;98862.59;;;0.69;100.00
45621;BME280;31345;51.522;10.702;2023-01-30T02:14:42;98851.38;;;0.72;100.00
45621;BME280;31345;51.522;10.702;2023-01-30T02:17:18;98844.88;;;0.60;100.00
45621;BME280;31345;51.522;10.702;2023-01-30T02:19:49;98839.44;;;0.69;100.00
45621;BME280;31345;51.522;10.702;2023-01-30T02:22:41;98836.66;;;0.76;100.00
45621;BME280;31345;51.522;10.702;2023-01-30T02:25:40;98837.00;;;0.65;100.00
45621;BME280;31345;51.522;10.702;2023-01-30T02:31:27;98832.69;;;0.65;100.00
45621;BME280;31345;51.522;10.702;2023-01-30T02:34:09;98827.13;;;0.79;100.00
45621;BME280;31345;51.522;10.702;2023-01-30T02:36:51;98816.41;;;0.65;100.00
45621;BME280;31345;51.522;10.702;2023-01-30T02:39:34;98813.66;;;0.71;100.00
45621;BME280;31345;51.522;10.702;2023-01-30T02:42:18;98805.41;;;0.59;100.00
45621;BME280;31345;51.522;10.702;2023-01-30T02:44:53;98795.44;;;0.77;100.00
45621;BME280;31345;51.522;10.702;2023-01-30T02:47:27;98783.38;;;0.79;100.00
45621;BME280;31345;51.522;10.702;2023-01-30T02:50:05;98795.00;;;0.64;100.00
45621;BME280;31345;51.522;10.702;2023-01-30T02:52:35;98795.91;;;0.90;100.00
45621;BME280;31345;51.522;10.702;2023-01-30T02:55:13;98800.84;;;0.98;100.00
45621;BME280;31345;51.522;10.702;2023-01-30T02:57:49;98793.59;;;1.09;100.00
45621;BME280;31345;51.522;10.702;2023-01-30T03:00:31;98779.13;;;1.05;100.00
45621;BME280;31345;51.522;10.702;2023-01-30T03:03:17;98776.97;;;0.93;100.00
45621;BME280;31345;51.522;10.702;2023-01-30T03:06:01;98778.75;;;0.91;100.00
45621;BME280;31345;51.522;10.702;2023-01-30T03:08:33;98785.28;;;0.74;100.00
45621;BME280;31345;51.522;10.702;2023-01-30T03:11:11;98786.75;;;0.81;100.00
45621;BME280;31345;51.522;10.702;2023-01-30T03:13:48;98785.31;;;0.73;100.00
45621;BME280;31345;51.522;10.702;2023-01-30T03:16:27;98787.50;;;0.56;100.00
45621;BME280;31345;51.522;10.702;2023-01-30T03:19:05;98777.44;;;0.49;100.00
45621;BME280;31345;51.522;10.702;2023-01-30T03:21:40;98768.88;;;0.48;100.00
45621;BME280;31345;51.522;10.702;2023-01-30T03:24:15;98774.09;;;0.45;100.00
45621;BME280;31345;51.522;10.702;2023-01-30T03:26:51;98758.06;;;0.37;100.00
45621;BME280;31345;51.522;10.702;2023-01-30T03:29:21;98768.31;;;0.38;100.00
45621;BME280;31345;51.522;10.702;2023-01-30T03:31:55;98757.97;;;0.40;100.00
45621;BME280;31345;51.522;10.702;2023-01-30T03:34:29;98756.38;;;0.36;100.00
45621;BME280;31345;51.522;10.702;2023-01-30T03:37:02;98757.38;;;0.60;100.00
45621;BME280;31345;51.522;10.702;2023-01-30T03:39:34;98754.50;;;0.41;100.00
45621;BME280;31345;51.522;10.702;2023-01-30T03:42:05;98732.34;;;0.37;100.00
45621;BME280;31345;51.522;10.702;2023-01-30T03:44:38;98734.41;;;0.54;100.00
45621;BME280;31345;51.522;10.702;2023-01-30T03:47:07;98724.44;;;0.43;100.00
45621;BME280;31345;51.522;10.702;2023-01-30T03:49:41;98709.84;;;0.43;100.00
45621;BME280;31345;51.522;10.702;2023-01-30T03:52:13;98730.25;;;0.50;100.00
45621;BME280;31345;51.522;10.702;2023-01-30T03:54:46;98714.97;;;0.43;100.00
45621;BME280;31345;51.522;10.702;2023-01-30T03:57:14;98715.75;;;0.47;100.00
45621;BME280;31345;51.522;10.702;2023-01-30T03:59:47;98719.91;;;0.51;100.00
45621;BME280;31345;51.522;10.702;2023-01-30T04:02:16;98718.06;;;0.55;100.00
45621;BME280;31345;51.522;10.702;2023-01-30T04:04:48;98707.88;;;0.52;100.00
45621;BME280;31345;51.522;10.702;2023-01-30T04:07:16;98708.63;;;0.55;100.00
45621;BME280;31345;51.522;10.702;2023-01-30T04:09:45;98705.00;;;0.63;100.00
45621;BME280;31345;51.522;10.702;2023-01-30T04:12:18;98695.78;;;0.55;100.00
45621;BME280;31345;51.522;10.702;2023-01-30T04:14:58;98695.63;;;0.60;100.00
45621;BME280;31345;51.522;10.702;2023-01-30T04:18:06;98665.53;;;0.62;100.00
45621;BME280;31345;51.522;10.702;2023-01-30T04:20:40;98682.69;;;0.62;100.00
45621;BME280;31345;51.522;10.702;2023-01-30T04:23:08;98681.06;;;0.59;100.00
45621;BME280;31345;51.522;10.702;2023-01-30T04:25:35;98694.50;;;0.69;100.00
45621;BME280;31345;51.522;10.702;2023-01-30T04:28:06;98684.38;;;0.64;100.00
45621;BME280;31345;51.522;10.702;2023-01-30T04:30:41;98684.59;;;0.56;100.00
45621;BME280;31345;51.522;10.702;2023-01-30T04:33:35;98671.84;;;0.52;100.00
45621;BME280;31345;51.522;10.702;2023-01-30T04:36:12;98672.72;;;0.52;100.00
45621;BME280;31345;51.522;10.702;2023-01-30T04:38:46;98671.09;;;0.50;100.00
45621;BME280;31345;51.522;10.702;2023-01-30T04:41:18;98659.97;;;0.48;100.00
45621;BME280;31345;51.522;10.702;2023-01-30T04:43:54;98667.47;;;0.55;100.00
45621;BME280;31345;51.522;10.702;2023-01-30T04:46:43;98653.81;;;0.53;100.00
45621;BME280;31345;51.522;10.702;2023-01-30T04:49:18;98647.78;;;0.54;100.00
45621;BME280;31345;51.522;10.702;2023-01-30T04:51:56;98657.97;;;0.57;100.00
45621;BME280;31345;51.522;10.702;2023-01-30T04:54:29;98654.16;;;0.69;100.00
45621;BME280;31345;51.522;10.702;2023-01-30T04:56:57;98647.63;;;0.59;100.00
45621;BME280;31345;51.522;10.702;2023-01-30T04:59:24;98639.31;;;0.51;100.00
45621;BME280;31345;51.522;10.702;2023-01-30T05:01:54;98635.97;;;0.49;100.00
45621;BME280;31345;51.522;10.702;2023-01-30T05:04:21;98634.09;;;0.54;100.00
45621;BME280;31345;51.522;10.702;2023-01-30T05:06:55;98630.66;;;0.53;100.00
45621;BME280;31345;51.522;10.702;2023-01-30T05:09:23;98626.50;;;0.49;100.00
45621;BME280;31345;51.522;10.702;2023-01-30T05:11:50;98622.31;;;0.46;100.00
45621;BME280;31345;51.522;10.702;2023-01-30T05:14:22;98625.00;;;0.42;100.00
45621;BME280;31345;51.522;10.702;2023-01-30T05:16:55;98614.91;;;0.64;100.00
45621;BME280;31345;51.522;10.702;2023-01-30T05:19:23;98601.19;;;0.64;100.00
45621;BME280;31345;51.522;10.702;2023-01-30T05:21:50;98597.88;;;0.60;100.00
45621;BME280;31345;51.522;10.702;2023-01-30T05:24:24;98583.47;;;0.54;100.00
45621;BME280;31345;51.522;10.702;2023-01-30T05:26:51;98601.78;;;0.45;100.00
45621;BME280;31345;51.522;10.702;2023-01-30T05:29:24;98600.25;;;0.39;100.00
45621;BME280;31345;51.522;10.702;2023-01-30T05:31:56;98594.06;;;0.45;100.00
45621;BME280;31345;51.522;10.702;2023-01-30T05:34:24;98602.31;;;0.55;100.00
45621;BME280;31345;51.522;10.702;2023-01-30T05:36:52;98605.44;;;0.38;100.00
45621;BME280;31345;51.522;10.702;2023-01-30T05:39:25;98604.34;;;0.45;100.00
45621;BME280;31345;51.522;10.702;2023-01-30T05:41:58;98599.97;;;0.49;100.00
45621;BME280;31345;51.522;10.702;2023-01-30T05:44:25;98590.88;;;0.64;100.00
45621;BME280;31345;51.522;10.702;2023-01-30T05:46:58;98583.03;;;0.68;100.00
45621;BME280;31345;51.522;10.702;2023-01-30T05:49:25;98581.16;;;0.46;100.00
45621;BME280;31345;51.522;10.702;2023-01-30T05:51:58;98578.22;;;0.57;100.00
45621;BME280;31345;51.522;10.702;2023-01-30T05:54:33;98575.28;;;0.43;100.00
45621;BME280;31345;51.522;10.702;2023-01-30T05:57:05;98563.34;;;0.66;100.00
45621;BME280;31345;51.522;10.702;2023-01-30T05:59:38;98573.66;;;0.66;100.00
45621;BME280;31345;51.522;10.702;2023-01-30T06:02:10;98572.13;;;0.85;100.00
45621;BME280;31345;51.522;10.702;2023-01-30T06:04:43;98568.34;;;0.96;100.00
45621;BME280;31345;51.522;10.702;2023-01-30T06:07:11;98562.84;;;0.81;100.00
45621;BME280;31345;51.522;10.702;2023-01-30T06:09:47;98560.97;;;0.87;100.00
45621;BME280;31345;51.522;10.702;2023-01-30T06:12:20;98564.16;;;0.93;100.00
45621;BME280;31345;51.522;10.702;2023-01-30T06:14:48;98561.91;;;0.84;100.00
45621;BME280;31345;51.522;10.702;2023-01-30T06:17:21;98559.59;;;0.76;100.00
45621;BME280;31345;51.522;10.702;2023-01-30T06:19:50;98560.53;;;0.74;100.00
45621;BME280;31345;51.522;10.702;2023-01-30T06:22:30;98548.28;;;0.80;100.00
45621;BME280;31345;51.522;10.702;2023-01-30T06:25:05;98560.31;;;0.80;100.00
45621;BME280;31345;51.522;10.702;2023-01-30T06:27:37;98559.00;;;0.93;100.00
45621;BME280;31345;51.522;10.702;2023-01-30T06:30:06;98552.72;;;1.02;100.00
45621;BME280;31345;51.522;10.702;2023-01-30T06:32:34;98553.81;;;0.95;100.00
45621;BME280;31345;51.522;10.702;2023-01-30T06:35:07;98560.13;;;0.86;100.00
45621;BME280;31345;51.522;10.702;2023-01-30T06:37:35;98561.50;;;0.96;100.00
45621;BME280;31345;51.522;10.702;2023-01-30T06:40:05;98568.78;;;1.09;100.00
45621;BME280;31345;51.522;10.702;2023-01-30T06:42:37;98551.88;;;1.02;100.00
45621;BME280;31345;51.522;10.702;2023-01-30T06:45:10;98563.81;;;1.03;100.00
45621;BME280;31345;51.522;10.702;2023-01-30T06:47:44;98556.97;;;1.03;100.00
45621;BME280;31345;51.522;10.702;2023-01-30T06:50:18;98553.59;;;1.01;100.00
45621;BME280;31345;51.522;10.702;2023-01-30T06:52:53;98547.81;;;0.94;100.00
45621;BME280;31345;51.522;10.702;2023-01-30T06:55:27;98540.00;;;0.97;100.00
45621;BME280;31345;51.522;10.702;2023-01-30T06:58:03;98543.63;;;1.40;100.00
45621;BME280;31345;51.522;10.702;2023-01-30T07:00:37;98540.97;;;1.43;100.00
45621;BME280;31345;51.522;10.702;2023-01-30T07:03:09;98546.16;;;1.41;100.00
45621;BME280;31345;51.522;10.702;2023-01-30T07:05:44;98538.31;;;1.44;100.00
45621;BME280;31345;51.522;10.702;2023-01-30T07:08:17;98529.91;;;1.39;100.00
45621;BME280;31345;51.522;10.702;2023-01-30T07:10:52;98533.41;;;1.14;100.00
45621;BME280;31345;51.522;10.702;2023-01-30T07:13:19;98533.50;;;1.11;100.00
45621;BME280;31345;51.522;10.702;2023-01-30T07:15:52;98520.91;;;1.03;100.00
45621;BME280;31345;51.522;10.702;2023-01-30T07:18:24;98538.88;;;1.05;100.00
45621;BME280;31345;51.522;10.702;2023-01-30T07:20:52;98526.63;;;1.12;100.00
45621;BME280;31345;51.522;10.702;2023-01-30T07:23:19;98530.81;;;1.38;100.00
45621;BME280;31345;51.522;10.702;2023-01-30T07:25:47;98523.13;;;1.36;100.00
45621;BME280;31345;51.522;10.702;2023-01-30T07:28:16;98526.88;;;1.74;100.00
45621;BME280;31345;51.522;10.702;2023-01-30T07:30:43;98520.38;;;1.65;100.00
45621;BME280;31345;51.522;10.702;2023-01-30T07:33:15;98533.91;;;1.70;100.00
45621;BME280;31345;51.522;10.702;2023-01-30T07:35:48;98534.88;;;1.68;100.00
45621;BME280;31345;51.522;10.702;2023-01-30T07:38:23;98539.72;;;1.75;100.00
45621;BME280;31345;51.522;10.702;2023-01-30T07:40:51;98532.28;;;1.68;100.00
45621;BME280;31345;51.522;10.702;2023-01-30T07:43:25;98535.63;;;1.70;100.00
45621;BME280;31345;51.522;10.702;2023-01-30T07:45:59;98533.03;;;1.47;100.00
45621;BME280;31345;51.522;10.702;2023-01-30T07:48:27;98520.59;;;1.81;100.00
45621;BME280;31345;51.522;10.702;2023-01-30T07:50:55;98526.22;;;1.69;100.00
45621;BME280;31345;51.522;10.702;2023-01-30T07:53:28;98528.31;;;1.59;100.00
45621;BME280;31345;51.522;10.702;2023-01-30T07:56:05;98524.88;;;1.82;100.00
45621;BME280;31345;51.522;10.702;2023-01-30T07:58:34;98524.50;;;1.69;100.00
45621;BME280;31345;51.522;10.702;2023-01-30T08:01:02;98526.69;;;2.01;100.00
45621;BME280;31345;51.522;10.702;2023-01-30T08:03:35;98529.72;;;1.90;100.00
45621;BME280;31345;51.522;10.702;2023-01-30T08:06:07;98535.63;;;1.70;100.00
45621;BME280;31345;51.522;10.702;2023-01-30T08:08:40;98524.50;;;1.92;100.00
45621;BME280;31345;51.522;10.702;2023-01-30T08:11:08;98533.19;;;2.11;100.00
45621;BME280;31345;51.522;10.702;2023-01-30T08:13:37;98527.16;;;2.11;100.00
45621;BME280;31345;51.522;10.702;2023-01-30T08:16:06;98534.09;;;2.10;100.00
45621;BME280;31345;51.522;10.702;2023-01-30T08:18:39;98530.56;;;1.91;100.00
45621;BME280;31345;51.522;10.702;2023-01-30T08:21:13;98525.69;;;2.05;100.00
45621;BME280;31345;51.522;10.702;2023-01-30T08:23:46;98530.94;;;2.24;100.00
45621;BME280;31345;51.522;10.702;2023-01-30T08:26:18;98532.09;;;2.17;100.00
45621;BME280;31345;51.522;10.702;2023-01-30T08:28:47;98530.34;;;2.18;100.00
45621;BME280;31345;51.522;10.702;2023-01-30T08:31:20;98531.38;;;2.13;100.00
45621;BME280;31345;51.522;10.702;2023-01-30T08:33:47;98523.22;;;2.02;100.00
45621;BME280;31345;51.522;10.702;2023-01-30T08:36:21;98537.81;;;2.03;100.00
45621;BME280;31345;51.522;10.702;2023-01-30T08:38:49;98532.28;;;2.12;100.00
45621;BME280;31345;51.522;10.702;2023-01-30T08:41:21;98526.59;;;2.04;100.00
45621;BME280;31345;51.522;10.702;2023-01-30T08:43:55;98537.81;;;2.03;100.00
45621;BME280;31345;51.522;10.702;2023-01-30T08:46:23;98547.50;;;2.19;100.00
45621;BME280;31345;51.522;10.702;2023-01-30T08:48:55;98541.41;;;1.99;100.00
45621;BME280;31345;51.522;10.702;2023-01-30T08:51:28;98542.34;;;2.19;100.00
45621;BME280;31345;51.522;10.702;2023-01-30T08:53:55;98542.16;;;2.01;100.00
45621;BME280;31345;51.522;10.702;2023-01-30T08:56:28;98530.59;;;2.11;100.00
45621;BME280;31345;51.522;10.702;2023-01-30T08:59:02;98540.97;;;2.10;100.00
45621;BME280;31345;51.522;10.702;2023-01-30T09:01:34;98534.78;;;2.14;100.00
45621;BME280;31345;51.522;10.702;2023-01-30T09:04:03;98535.69;;;2.13;100.00
45621;BME280;31345;51.522;10.702;2023-01-30T09:06:31;98537.44;;;2.12;100.00
45621;BME280;31345;51.522;10.702;2023-01-30T09:09:04;98536.63;;;2.33;100.00
45621;BME280;31345;51.522;10.702;2023-01-30T09:11:31;98538.66;;;2.47;100.00
45621;BME280;31345;51.522;10.702;2023-01-30T09:13:59;98545.47;;;2.48;100.00
45621;BME280;31345;51.522;10.702;2023-01-30T09:16:28;98544.09;;;2.39;100.00
45621;BME280;31345;51.522;10.702;2023-01-30T09:18:55;98554.16;;;2.24;100.00
45621;BME280;31345;51.522;10.702;2023-01-30T09:21:28;98563.81;;;2.19;100.00
45621;BME280;31345;51.522;10.702;2023-01-30T09:24:02;98550.97;;;2.18;100.00
45621;BME280;31345;51.522;10.702;2023-01-30T09:26:34;98553.56;;;1.95;100.00
45621;BME280;31345;51.522;10.702;2023-01-30T09:29:07;98553.09;;;1.85;100.00
45621;BME280;31345;51.522;10.702;2023-01-30T09:31:41;98551.03;;;1.94;100.00
45621;BME280;31345;51.522;10.702;2023-01-30T09:34:08;98548.78;;;1.86;100.00
45621;BME280;31345;51.522;10.702;2023-01-30T09:36:41;98551.19;;;1.91;100.00
45621;BME280;31345;51.522;10.702;2023-01-30T09:39:14;98552.00;;;1.91;100.00
45621;BME280;31345;51.522;10.702;2023-01-30T09:41:50;98542.13;;;2.03;100.00
45621;BME280;31345;51.522;10.702;2023-01-30T09:44:46;98545.34;;;2.30;100.00
45621;BME280;31345;51.522;10.702;2023-01-30T09:47:32;98553.84;;;2.53;100.00
45621;BME280;31345;51.522;10.702;2023-01-30T09:50:16;98543.53;;;2.53;100.00
45621;BME280;31345;51.522;10.702;2023-01-30T09:52:52;98546.16;;;2.51;100.00
45621;BME280;31345;51.522;10.702;2023-01-30T09:55:28;98559.88;;;2.53;100.00
45621;BME280;31345;51.522;10.702;2023-01-30T09:58:01;98562.97;;;2.41;100.00
45621;BME280;31345;51.522;10.702;2023-01-30T10:00:35;98575.28;;;2.55;100.00
45621;BME280;31345;51.522;10.702;2023-01-30T10:03:13;98575.75;;;2.44;100.00
45621;BME280;31345;51.522;10.702;2023-01-30T10:05:44;98582.00;;;2.59;100.00
45621;BME280;31345;51.522;10.702;2023-01-30T10:08:41;98566.41;;;2.62;100.00
45621;BME280;31345;51.522;10.702;2023-01-30T10:11:27;98591.69;;;2.75;100.00
45621;BME280;31345;51.522;10.702;2023-01-30T10:14:23;98587.03;;;2.83;100.00
45621;BME280;31345;51.522;10.702;2023-01-30T10:17:04;98577.09;;;2.74;100.00
45621;BME280;31345;51.522;10.702;2023-01-30T10:19:57;98574.72;;;2.69;100.00
45621;BME280;31345;51.522;10.702;2023-01-30T10:22:42;98574.66;;;2.91;100.00
45621;BME280;31345;51.522;10.702;2023-01-30T10:25:20;98579.03;;;3.10;100.00
45621;BME280;31345;51.522;10.702;2023-01-30T10:27:52;98567.94;;;3.27;100.00
45621;BME280;31345;51.522;10.702;2023-01-30T10:30:20;98543.56;;;3.33;100.00
45621;BME280;31345;51.522;10.702;2023-01-30T10:32:56;98536.88;;;3.67;100.00
45621;BME280;31345;51.522;10.702;2023-01-30T10:35:30;98531.91;;;4.00;100.00
45621;BME280;31345;51.522;10.702;2023-01-30T10:38:09;98515.03;;;4.45;100.00
45621;BME280;31345;51.522;10.702;2023-01-30T10:40:41;98513.78;;;4.88;100.00
45621;BME280;31345;51.522;10.702;2023-01-30T10:43:23;98501.78;;;5.03;100.00
45621;BME280;31345;51.522;10.702;2023-01-30T10:46:03;98504.50;;;4.84;100.00
45621;BME280;31345;51.522;10.702;2023-01-30T10:48:51;98507.16;;;5.32;100.00
45621;BME280;31345;51.522;10.702;2023-01-30T10:51:40;98518.84;;;5.07;100.00
45621;BME280;31345;51.522;10.702;2023-01-30T10:54:13;98518.94;;;4.54;100.00
45621;BME280;31345;51.522;10.702;2023-01-30T10:56:54;98518.47;;;4.46;100.00
45621;BME280;31345;51.522;10.702;2023-01-30T10:59:33;98522.13;;;4.24;100.00
45621;BME280;31345;51.522;10.702;2023-01-30T11:02:22;98525.47;;;4.08;100.00
45621;BME280;31345;51.522;10.702;2023-01-30T11:04:57;98537.81;;;3.84;100.00
45621;BME280;31345;51.522;10.702;2023-01-30T11:07:32;98554.69;;;3.35;100.00
45621;BME280;31345;51.522;10.702;2023-01-30T11:10:14;98553.69;;;2.98;100.00
45621;BME280;31345;51.522;10.702;2023-01-30T11:12:43;98562.25;;;2.58;100.00
45621;BME280;31345;51.522;10.702;2023-01-30T11:15:16;98567.81;;;2.26;100.00
45621;BME280;31345;51.522;10.702;2023-01-30T11:17:44;98576.53;;;2.24;100.00
45621;BME280;31345;51.522;10.702;2023-01-30T11:20:19;98569.88;;;2.18;100.00
45621;BME280;31345;51.522;10.702;2023-01-30T11:23:05;98550.28;;;2.14;100.00
45621;BME280;31345;51.522;10.702;2023-01-30T11:25:47;98549.31;;;2.37;100.00
45621;BME280;31345;51.522;10.702;2023-01-30T11:28:15;98541.97;;;2.49;100.00
45621;BME280;31345;51.522;10.702;2023-01-30T11:30:52;98531.53;;;2.73;100.00
45621;BME280;31345;51.522;10.702;2023-01-30T11:33:32;98525.59;;;3.30;100.00
45621;BME280;31345;51.522;10.702;2023-01-30T11:36:02;98519.09;;;3.60;100.00
45621;BME280;31345;51.522;10.702;2023-01-30T11:38:36;98507.03;;;3.60;100.00
45621;BME280;31345;51.522;10.702;2023-01-30T11:41:15;98513.31;;;3.54;100.00
45621;BME280;31345;51.522;10.702;2023-01-30T11:43:49;98528.28;;;3.28;100.00
45621;BME280;31345;51.522;10.702;2023-01-30T11:46:22;98503.50;;;3.24;100.00
45621;BME280;31345;51.522;10.702;2023-01-30T11:48:53;98506.28;;;3.39;100.00
45621;BME280;31345;51.522;10.702;2023-01-30T11:51:26;98507.31;;;3.54;100.00
45621;BME280;31345;51.522;10.702;2023-01-30T11:54:03;98502.50;;;3.46;100.00
45621;BME280;31345;51.522;10.702;2023-01-30T11:56:39;98516.41;;;3.43;100.00
45621;BME280;31345;51.522;10.702;2023-01-30T11:59:23;98557.31;;;3.14;100.00
45621;BME280;31345;51.522;10.702;2023-01-30T12:01:52;98549.53;;;2.74;100.00
45621;BME280;31345;51.522;10.702;2023-01-30T12:04:33;98516.75;;;2.56;100.00
45621;BME280;31345;51.522;10.702;2023-01-30T12:07:05;98528.56;;;2.40;100.00
45621;BME280;31345;51.522;10.702;2023-01-30T12:09:36;98520.75;;;2.42;100.00
45621;BME280;31345;51.522;10.702;2023-01-30T12:12:26;98510.63;;;2.37;100.00
45621;BME280;31345;51.522;10.702;2023-01-30T12:15:02;98500.97;;;2.43;100.00
45621;BME280;31345;51.522;10.702;2023-01-30T12:17:41;98490.38;;;2.49;100.00
45621;BME280;31345;51.522;10.702;2023-01-30T12:20:16;98481.94;;;2.45;100.00
45621;BME280;31345;51.522;10.702;2023-01-30T12:22:54;98485.09;;;2.52;100.00
45621;BME280;31345;51.522;10.702;2023-01-30T12:25:31;98477.97;;;2.57;100.00
45621;BME280;31345;51.522;10.702;2023-01-30T12:28:03;98483.13;;;2.78;100.00
45621;BME280;31345;51.522;10.702;2023-01-30T12:30:44;98484.47;;;2.87;100.00
45621;BME280;31345;51.522;10.702;2023-01-30T12:33:16;98478.81;;;2.98;100.00
45621;BME280;31345;51.522;10.702;2023-01-30T12:35:59;98473.78;;;3.33;100.00
45621;BME280;31345;51.522;10.702;2023-01-30T12:38:46;98492.00;;;3.68;100.00
45621;BME280;31345;51.522;10.702;2023-01-30T12:41:31;98477.69;;;3.61;100.00
45621;BME280;31345;51.522;10.702;2023-01-30T12:44:19;98476.63;;;3.65;100.00
45621;BME280;31345;51.522;10.702;2023-01-30T12:47:09;98473.22;;;3.65;100.00
45621;BME280;31345;51.522;10.702;2023-01-30T12:49:49;98470.91;;;3.59;100.00
45621;BME280;31345;51.522;10.702;2023-01-30T12:52:39;98477.94;;;3.74;100.00
45621;BME280;31345;51.522;10.702;2023-01-30T12:55:21;98462.28;;;3.95;100.00
45621;BME280;31345;51.522;10.702;2023-01-30T12:57:59;98488.47;;;3.89;100.00
45621;BME280;31345;51.522;10.702;2023-01-30T13:00:51;98480.81;;;3.68;100.00
45621;BME280;31345;51.522;10.702;2023-01-30T13:03:29;98474.31;;;3.96;100.00
45621;BME280;31345;51.522;10.702;2023-01-30T13:06:13;98462.75;;;4.39;100.00
45621;BME280;31345;51.522;10.702;2023-01-30T13:08:53;98454.84;;;4.06;100.00
45621;BME280;31345;51.522;10.702;2023-01-30T13:11:42;98460.69;;;3.92;100.00
45621;BME280;31345;51.522;10.702;2023-01-30T13:14:20;98467.19;;;3.64;100.00
45621;BME280;31345;51.522;10.702;2023-01-30T13:17:02;98451.63;;;3.66;100.00
45621;BME280;31345;51.522;10.702;2023-01-30T13:19:38;98457.47;;;3.69;100.00
45621;BME280;31345;51.522;10.702;2023-01-30T13:22:12;98448.13;;;3.67;100.00
45621;BME280;31345;51.522;10.702;2023-01-30T13:24:49;98443.72;;;3.69;100.00
45621;BME280;31345;51.522;10.702;2023-01-30T13:27:21;98443.47;;;3.56;100.00
45621;BME280;31345;51.522;10.702;2023-01-30T13:29:58;98440.53;;;3.81;100.00
45621;BME280;31345;51.522;10.702;2023-01-30T13:32:36;98440.94;;;3.91;100.00